Time;durP1;ratioP1;P1;durP2;ratioP2;P2;SDS_P1;SDS_P2;PMS_P1;PMS_P2;Temp;Humidity;BMP_temperature;BMP_pressure;BME280_temperature;BME280_humidity;BME280_pressure;Samples;Min_cycle;Max_cycle;Signal;HPM_P1;HPM_P2
2021/12/08 00:00:17;;;;;;;14.60;6.97;;;;;;;3.21;100.00;99128.84;5094082;28;20032;-56
2021/12/08 00:02:43;;;;;;;15.63;6.70;;;;;;;3.24;100.00;99128.97;5093015;28;20101;-56
2021/12/08 00:05:11;;;;;;;16.92;7.07;;;;;;;3.27;100.00;99133.28;5093956;28;20426;-56
2021/12/08 00:07:37;;;;;;;17.75;7.03;;;;;;;3.29;100.00;99124.88;5093623;28;20024;-57
2021/12/08 00:10:16;;;;;;;12.77;6.85;;;;;;;3.34;100.00;99119.91;5092935;28;20032;-56
2021/12/08 00:13:05;;;;;;;12.18;5.90;;;;;;;3.40;100.00;99121.78;5093499;28;20341;-56
2021/12/08 00:15:35;;;;;;;13.70;6.47;;;;;;;3.45;100.00;99107.53;5092542;28;20348;-56
2021/12/08 00:18:03;;;;;;;14.07;6.88;;;;;;;3.46;100.00;99109.25;5093888;28;20085;-56
2021/12/08 00:20:31;;;;;;;16.33;6.78;;;;;;;3.51;100.00;99101.72;5093644;28;20441;-56
2021/12/08 00:22:57;;;;;;;15.20;7.30;;;;;;;3.55;100.00;99109.53;5092472;28;20578;-56
2021/12/08 00:25:22;;;;;;;12.63;6.45;;;;;;;3.58;100.00;99104.50;5093689;28;20036;-56
2021/12/08 00:27:49;;;;;;;11.82;6.45;;;;;;;3.61;100.00;99119.88;5093043;28;20039;-56
2021/12/08 00:30:16;;;;;;;12.43;6.15;;;;;;;3.66;100.00;99117.47;5092799;28;20019;-56
2021/12/08 00:32:41;;;;;;;13.88;6.72;;;;;;;3.70;100.00;99120.97;5092386;28;20502;-56
2021/12/08 00:35:07;;;;;;;12.52;6.35;;;;;;;3.71;100.00;99121.00;5093414;28;20063;-56
2021/12/08 00:37:33;;;;;;;10.40;6.57;;;;;;;3.76;100.00;99119.47;5092396;28;20036;-55
2021/12/08 00:40:02;;;;;;;13.45;6.50;;;;;;;3.85;100.00;99118.88;5093224;28;20472;-57
2021/12/08 00:42:27;;;;;;;13.07;6.47;;;;;;;3.89;100.00;99115.59;5093050;28;20479;-57
2021/12/08 00:44:53;;;;;;;10.43;6.07;;;;;;;3.95;100.00;99114.88;5092376;28;20068;-56
2021/12/08 00:47:18;;;;;;;14.25;6.93;;;;;;;3.99;100.00;99115.84;5093201;28;20102;-57
2021/12/08 00:49:46;;;;;;;11.90;5.75;;;;;;;4.03;100.00;99110.88;5092854;28;20024;-57
2021/12/08 00:52:14;;;;;;;15.45;8.18;;;;;;;4.10;100.00;99112.75;5092899;28;20341;-56
2021/12/08 00:54:40;;;;;;;10.85;5.80;;;;;;;4.18;100.00;99107.88;5093170;28;20115;-57
2021/12/08 00:57:05;;;;;;;9.95;5.85;;;;;;;4.23;100.00;99116.50;5092460;28;20045;-56
2021/12/08 00:59:31;;;;;;;13.00;6.47;;;;;;;4.26;100.00;99131.03;5093354;28;20028;-56
2021/12/08 01:02:02;;;;;;;12.93;7.85;;;;;;;4.29;100.00;99139.63;5093078;28;20012;-56
2021/12/08 01:04:27;;;;;;;9.18;5.13;;;;;;;4.35;100.00;99140.63;5092051;28;20146;-56
2021/12/08 01:06:53;;;;;;;12.07;6.20;;;;;;;4.38;100.00;99136.47;5092864;28;20099;-56
2021/12/08 01:09:18;;;;;;;9.20;5.07;;;;;;;4.43;100.00;99134.06;5093177;28;20486;-57
2021/12/08 01:11:43;;;;;;;8.38;4.47;;;;;;;4.45;100.00;99153.69;5092091;28;20031;-57
2021/12/08 01:14:09;;;;;;;8.80;4.40;;;;;;;4.50;100.00;99158.91;5092947;28;20022;-56
2021/12/08 01:16:34;;;;;;;11.25;5.70;;;;;;;4.51;100.00;99147.88;5093031;28;20081;-56
2021/12/08 01:18:59;;;;;;;9.75;5.70;;;;;;;4.53;100.00;99161.53;5091854;28;20028;-56
2021/12/08 01:21:25;;;;;;;8.23;4.88;;;;;;;4.54;100.00;99155.59;5092905;28;20035;-57
2021/12/08 01:23:50;;;;;;;10.02;4.55;;;;;;;4.59;100.00;99156.56;5092803;28;20028;-57
2021/12/08 01:26:16;;;;;;;8.02;4.05;;;;;;;4.65;100.00;99152.47;5091837;28;20044;-57
2021/12/08 01:28:42;;;;;;;9.60;4.10;;;;;;;4.69;100.00;99151.75;5092530;28;20123;-56
2021/12/08 01:31:08;;;;;;;7.40;3.90;;;;;;;4.74;100.00;99162.94;5092807;28;20044;-57
2021/12/08 01:33:35;;;;;;;11.07;4.53;;;;;;;4.80;100.00;99164.75;5091548;28;20028;-57
2021/12/08 01:36:02;;;;;;;7.60;4.10;;;;;;;4.79;100.00;99163.91;5092243;28;20024;-57
2021/12/08 01:38:28;;;;;;;8.07;4.50;;;;;;;4.81;100.00;99167.34;5092743;28;20319;-57
2021/12/08 01:40:54;;;;;;;9.73;4.22;;;;;;;4.83;100.00;99167.38;5091805;28;20035;-57
2021/12/08 01:43:28;;;;;;;11.68;5.75;;;;;;;4.83;100.00;99170.81;5094363;28;20024;-57
2021/12/08 01:46:03;;;;;;;12.40;6.18;;;;;;;4.86;100.00;99162.38;5096282;28;20089;-56
2021/12/08 01:48:31;;;;;;;13.23;4.95;;;;;;;4.85;100.00;99174.25;5095251;28;20040;-57
2021/12/08 01:51:04;;;;;;;23.00;9.60;;;;;;;4.86;100.00;99180.25;5095904;28;20501;-56
2021/12/08 01:53:30;;;;;;;58.80;29.85;;;;;;;4.84;100.00;99175.09;5095370;28;20093;-57
2021/12/08 01:55:55;;;;;;;11.02;5.30;;;;;;;4.86;100.00;99181.09;5095938;28;20032;-57
2021/12/08 01:58:22;;;;;;;11.13;4.22;;;;;;;4.86;100.00;99180.25;5095967;28;20032;-57
2021/12/08 02:00:54;;;;;;;16.20;7.18;;;;;;;4.87;100.00;99176.88;5094993;28;20020;-57
2021/12/08 02:03:22;;;;;;;9.50;3.88;;;;;;;4.89;100.00;99176.09;5095883;28;20371;-57
2021/12/08 02:05:48;;;;;;;18.58;8.38;;;;;;;4.90;100.00;99176.94;5095837;28;20016;-57
2021/12/08 02:08:14;;;;;;;9.65;4.70;;;;;;;4.89;100.00;99185.41;5095270;28;20020;-56
2021/12/08 02:10:41;;;;;;;8.70;3.97;;;;;;;4.91;100.00;99184.63;5095696;28;20459;-56
2021/12/08 02:13:07;;;;;;;12.27;6.00;;;;;;;4.89;100.00;99186.31;5095821;28;20016;-56
2021/12/08 02:15:34;;;;;;;13.23;4.18;;;;;;;4.93;100.00;99195.75;5095163;28;20424;-57
2021/12/08 02:17:59;;;;;;;13.07;4.93;;;;;;;4.93;100.00;99200.88;5095732;28;20028;-57
2021/12/08 02:20:28;;;;;;;11.18;5.47;;;;;;;4.93;100.00;99203.41;5095291;28;20031;-57
2021/12/08 02:22:54;;;;;;;12.77;4.07;;;;;;;4.95;100.00;99201.75;5094674;28;20153;-56
2021/12/08 02:25:23;;;;;;;8.55;4.25;;;;;;;4.95;100.00;99206.84;5095289;28;20040;-57
2021/12/08 02:27:51;;;;;;;11.95;5.22;;;;;;;4.95;100.00;99221.31;5095246;28;20024;-57
2021/12/08 02:48:52;;;;;;;11.75;3.83;;;;;;;4.87;100.00;99228.78;5095689;28;20158;-57
2021/12/08 02:51:20;;;;;;;17.52;8.43;;;;;;;4.82;99.85;99234.59;5094565;28;20024;-56
2021/12/08 02:53:47;;;;;;;11.50;4.07;;;;;;;4.81;100.00;99240.53;5094737;28;20020;-57
2021/12/08 02:56:12;;;;;;;13.95;5.75;;;;;;;4.80;99.90;99237.09;5094589;28;20034;-57
2021/12/08 02:58:38;;;;;;;15.35;5.50;;;;;;;4.79;99.82;99235.38;5094085;28;20107;-57
2021/12/08 03:01:08;;;;;;;11.40;3.97;;;;;;;4.78;100.00;99238.75;5094782;28;20107;-57
2021/12/08 03:03:34;;;;;;;12.05;4.07;;;;;;;4.79;100.00;99235.38;5094194;28;20099;-57
2021/12/08 03:05:59;;;;;;;12.60;4.07;;;;;;;4.80;100.00;99234.53;5094625;28;20463;-57
2021/12/08 03:08:25;;;;;;;10.95;4.60;;;;;;;4.82;100.00;99232.91;5094682;28;20031;-57
2021/12/08 03:10:52;;;;;;;12.88;3.58;;;;;;;4.82;99.85;99230.34;5093925;28;20024;-57
2021/12/08 03:13:28;;;;;;;13.35;4.63;;;;;;;4.86;99.56;99226.19;5094711;28;20032;-57
2021/12/08 03:15:53;;;;;;;10.95;3.78;;;;;;;4.85;99.98;99230.41;5094209;28;20471;-57
2021/12/08 03:18:18;;;;;;;16.48;5.45;;;;;;;4.89;99.45;99232.25;5094056;28;20149;-57
2021/12/08 03:20:45;;;;;;;13.63;3.70;;;;;;;4.92;99.83;99241.69;5094243;28;20027;-57
2021/12/08 03:23:20;;;;;;;11.65;4.07;;;;;;;4.93;99.78;99239.16;5094485;28;20416;-56
2021/12/08 03:25:55;;;;;;;13.75;3.83;;;;;;;4.97;99.11;99244.34;5093231;28;20050;-56
2021/12/08 03:28:24;;;;;;;15.35;3.55;;;;;;;5.00;98.78;99260.59;5094602;28;20032;-56
2021/12/08 03:30:58;;;;;;;17.35;5.65;;;;;;;5.03;98.22;99249.59;5094554;28;20456;-56
2021/12/08 03:33:24;;;;;;;14.63;4.05;;;;;;;5.04;97.95;99262.41;5093509;28;20059;-56
2021/12/08 03:35:49;;;;;;;11.90;4.15;;;;;;;5.04;97.40;99262.41;5093979;28;20062;-56
2021/12/08 03:38:17;;;;;;;14.40;3.50;;;;;;;5.05;96.60;99264.13;5094360;28;20028;-56
2021/12/08 03:40:42;;;;;;;24.95;8.13;;;;;;;5.03;95.46;99249.59;5092981;28;20020;-56
2021/12/08 03:43:07;;;;;;;20.05;7.45;;;;;;;4.98;95.43;99259.69;5093925;28;20107;-56
2021/12/08 03:45:40;;;;;;;22.02;8.10;;;;;;;4.99;94.55;99258.00;5094267;28;20055;-56
2021/12/08 03:48:13;;;;;;;13.80;3.15;;;;;;;4.99;94.00;99252.91;5093548;28;20037;-56
2021/12/08 03:50:40;;;;;;;13.05;4.72;;;;;;;4.91;93.87;99251.00;5093889;28;20024;-57
2021/12/08 03:53:08;;;;;;;17.95;6.30;;;;;;;4.87;93.81;99261.97;5093139;28;20051;-56
2021/12/08 03:55:34;;;;;;;10.20;3.58;;;;;;;4.78;94.41;99270.22;5093581;28;20069;-56
2021/12/08 03:57:59;;;;;;;14.70;3.55;;;;;;;4.74;94.54;99270.13;5093936;28;20028;-56
2021/12/08 04:00:29;;;;;;;12.10;4.60;;;;;;;4.67;94.23;99271.63;5092890;28;20031;-56
2021/12/08 04:02:56;;;;;;;13.80;4.15;;;;;;;4.61;94.08;99272.31;5093583;28;20027;-56
2021/12/08 04:05:31;;;;;;;18.90;5.97;;;;;;;4.58;93.69;99264.59;5093669;28;20065;-56
2021/12/08 04:08:03;;;;;;;12.40;4.25;;;;;;;4.54;93.58;99270.41;5092786;28;20031;-56
2021/12/08 04:10:29;;;;;;;18.45;7.45;;;;;;;4.50;93.21;99281.34;5093973;28;20028;-56
2021/12/08 04:12:56;;;;;;;10.52;3.22;;;;;;;4.52;93.32;99273.72;5093594;28;20016;-56
2021/12/08 04:15:25;;;;;;;15.35;2.90;;;;;;;4.49;92.68;99271.09;5092825;28;20028;-56
2021/12/08 04:17:53;;;;;;;10.52;2.88;;;;;;;4.45;92.29;99268.47;5093464;28;20031;-56
2021/12/08 04:20:21;;;;;;;12.75;3.30;;;;;;;4.43;92.63;99271.81;5093325;28;20032;-56
2021/12/08 04:22:49;;;;;;;25.33;10.02;;;;;;;4.34;93.09;99277.50;5092457;28;20463;-56
2021/12/08 04:25:21;;;;;;;18.27;6.05;;;;;;;4.30;93.29;99280.78;5093303;28;20047;-56
2021/12/08 04:27:49;;;;;;;17.90;3.53;;;;;;;4.28;93.51;99290.91;5093222;28;20111;-56
2021/12/08 04:30:19;;;;;;;10.40;2.72;;;;;;;4.27;93.17;99291.75;5092452;28;20472;-56
2021/12/08 04:32:45;;;;;;;11.95;3.22;;;;;;;4.21;93.71;99286.47;5092845;28;20379;-56
2021/12/08 04:35:11;;;;;;;10.60;3.60;;;;;;;4.21;93.72;99291.56;5092454;28;20032;-55
2021/12/08 04:37:44;;;;;;;10.23;3.17;;;;;;;4.18;93.80;99294.00;5092854;28;20480;-56
2021/12/08 04:40:41;;;;;;;10.15;2.90;;;;;;;4.19;93.94;99293.19;5093210;28;20052;-56
2021/12/08 04:43:15;;;;;;;10.27;3.13;;;;;;;4.14;94.16;99288.78;5091524;28;20566;-56
2021/12/08 04:46:01;;;;;;;11.55;3.70;;;;;;;4.16;94.08;99300.78;5092793;28;20447;-56
2021/12/08 04:49:05;;;;;;;16.13;3.63;;;;;;;4.15;93.85;99283.72;5092891;28;20036;-56
2021/12/08 04:51:50;;;;;;;13.02;2.90;;;;;;;4.10;93.51;99285.28;5092468;28;20036;-55
2021/12/08 05:05:49;;;;;;;13.30;3.03;;;;;;;4.03;91.69;99307.19;5092169;28;20038;-56
2021/12/08 05:08:17;;;;;;;11.52;3.17;;;;;;;4.04;90.92;99295.28;5092248;28;20032;-56
2021/12/08 05:10:43;;;;;;;12.02;2.70;;;;;;;3.98;91.55;99305.28;5092273;28;20357;-56
2021/12/08 05:13:11;;;;;;;9.55;2.78;;;;;;;3.99;90.99;99312.13;5092917;28;20024;-56
2021/12/08 05:15:41;;;;;;;16.77;2.92;;;;;;;4.00;90.96;99322.34;5092671;28;20097;-55
2021/12/08 05:18:20;;;;;;;15.02;3.38;;;;;;;4.02;90.69;99320.72;5093738;28;20514;-56
2021/12/08 05:21:02;;;;;;;13.05;3.00;;;;;;;4.02;90.75;99319.88;5096333;28;20024;-56
2021/12/08 05:23:39;;;;;;;13.77;2.80;;;;;;;4.05;90.34;99320.81;5096832;28;20028;-53
2021/12/08 05:26:13;;;;;;;11.80;2.75;;;;;;;4.09;89.97;99326.88;5095945;28;20445;-56
2021/12/08 05:28:40;;;;;;;16.17;3.00;;;;;;;4.12;89.45;99312.56;5096822;28;20110;-56
2021/12/08 05:31:19;;;;;;;11.05;2.80;;;;;;;4.12;89.51;99304.06;5096548;28;20028;-56
2021/12/08 05:33:46;;;;;;;15.23;3.42;;;;;;;4.11;89.46;99315.06;5096370;28;20475;-56
2021/12/08 05:36:13;;;;;;;12.18;3.00;;;;;;;4.06;90.23;99314.06;5096732;28;20067;-56
2021/12/08 05:38:39;;;;;;;16.47;3.17;;;;;;;4.09;89.51;99311.59;5095725;28;20103;-56
2021/12/08 05:41:18;;;;;;;13.32;2.80;;;;;;;4.13;89.22;99318.50;5096281;28;20028;-56
2021/12/08 05:43:45;;;;;;;18.40;2.85;;;;;;;4.12;88.97;99327.00;5096046;28;20044;-56
2021/12/08 05:46:13;;;;;;;14.32;3.60;;;;;;;4.09;89.12;99327.78;5095564;28;20020;-56
2021/12/08 05:48:39;;;;;;;14.40;2.95;;;;;;;4.09;89.12;99342.19;5096127;28;20028;-56
2021/12/08 05:51:15;;;;;;;15.18;3.42;;;;;;;4.08;89.23;99330.25;5096003;28;20020;-56
2021/12/08 05:53:44;;;;;;;17.25;2.72;;;;;;;4.10;89.17;99333.72;5095232;28;20035;-56
2021/12/08 05:56:11;;;;;;;9.90;3.08;;;;;;;4.12;88.68;99332.09;5095882;28;20097;-56
2021/12/08 05:58:37;;;;;;;14.02;2.88;;;;;;;4.11;88.83;99340.56;5095952;28;20038;-56
2021/12/08 06:01:12;;;;;;;16.50;3.15;;;;;;;4.08;89.37;99337.91;5095116;28;20053;-56
2021/12/08 06:03:39;;;;;;;17.23;3.00;;;;;;;4.05;89.23;99335.25;5095613;28;20368;-57
2021/12/08 06:06:06;;;;;;;14.50;3.25;;;;;;;4.04;88.63;99338.63;5095703;28;20379;-56
2021/12/08 06:08:31;;;;;;;15.68;3.50;;;;;;;3.99;89.57;99352.91;5095071;28;20034;-56
2021/12/08 06:11:01;;;;;;;16.38;3.15;;;;;;;3.97;89.52;99354.56;5095637;28;20028;-56
2021/12/08 06:13:26;;;;;;;17.55;3.30;;;;;;;3.95;89.57;99365.56;5095068;28;20020;-57
2021/12/08 06:15:52;;;;;;;18.25;4.20;;;;;;;3.91;89.59;99357.75;5095734;28;20357;-56
2021/12/08 06:18:22;;;;;;;13.23;3.70;;;;;;;3.90;89.34;99361.13;5095833;28;20020;-56
2021/12/08 06:20:48;;;;;;;16.95;3.58;;;;;;;3.91;89.44;99358.63;5094825;28;20099;-56
2021/12/08 06:23:14;;;;;;;16.40;3.53;;;;;;;3.86;89.86;99360.19;5095630;28;20020;-56
2021/12/08 06:25:40;;;;;;;17.23;4.18;;;;;;;3.86;89.51;99382.22;5095381;28;20059;-56
2021/12/08 06:28:08;;;;;;;16.25;4.50;;;;;;;3.91;89.09;99383.25;5094787;28;20072;-56
2021/12/08 06:30:36;;;;;;;19.13;4.65;;;;;;;3.90;89.14;99382.38;5094375;28;20024;-56
2021/12/08 06:33:02;;;;;;;17.45;3.78;;;;;;;3.89;89.21;99385.75;5095415;28;20489;-56
2021/12/08 06:35:37;;;;;;;17.85;3.83;;;;;;;3.87;89.29;99392.47;5094563;28;20467;-56
2021/12/08 06:38:05;;;;;;;19.27;4.07;;;;;;;3.84;89.02;99402.56;5095503;28;20395;-56
2021/12/08 06:40:41;;;;;;;16.10;4.10;;;;;;;3.86;88.50;99397.53;5095111;28;20539;-56
2021/12/08 06:43:10;;;;;;;15.73;3.53;;;;;;;3.85;88.42;99398.31;5094527;28;20035;-56
2021/12/08 06:45:41;;;;;;;13.23;3.65;;;;;;;3.84;88.29;99402.56;5094883;28;20085;-56
2021/12/08 06:48:12;;;;;;;15.20;4.00;;;;;;;3.81;88.15;99405.03;5095173;28;20084;-56
2021/12/08 06:50:43;;;;;;;18.05;4.88;;;;;;;3.77;88.41;99400.63;5094096;28;20072;-56
2021/12/08 06:53:09;;;;;;;17.55;3.95;;;;;;;3.74;88.04;99403.09;5095276;28;20085;-56
2021/12/08 06:55:42;;;;;;;19.95;3.90;;;;;;;3.72;88.34;99408.13;5094274;28;20035;-55
2021/12/08 06:58:14;;;;;;;20.02;5.18;;;;;;;3.68;88.70;99411.41;5094834;28;20024;-55
2021/12/08 07:00:59;;;;;;;15.85;4.50;;;;;;;3.65;88.60;99410.41;5094526;28;20081;-56
2021/12/08 07:06:07;;;;;;;14.90;3.97;;;;;;;3.58;88.69;99410.19;5094680;28;20043;-56
2021/12/08 07:08:38;;;;;;;16.48;4.20;;;;;;;3.55;88.58;99404.13;5094631;28;20024;-56
2021/12/08 07:11:05;;;;;;;15.65;3.65;;;;;;;3.53;88.96;99416.81;5093883;28;20055;-56
2021/12/08 07:13:33;;;;;;;16.40;3.45;;;;;;;3.51;89.02;99427.78;5094546;28;20051;-56
2021/12/08 07:16:06;;;;;;;17.67;4.07;;;;;;;3.45;89.49;99436.06;5094470;28;20036;-56
2021/12/08 07:18:40;;;;;;;14.35;3.50;;;;;;;3.46;89.29;99432.72;5093612;28;20032;-56
2021/12/08 07:21:12;;;;;;;20.52;3.90;;;;;;;3.44;89.19;99435.19;5094262;28;20082;-56
2021/12/08 07:23:43;;;;;;;15.25;3.47;;;;;;;3.43;88.94;99436.03;5094101;28;20054;-55
2021/12/08 07:26:24;;;;;;;15.23;3.95;;;;;;;3.45;89.05;99448.81;5093983;28;20391;-56
2021/12/08 07:28:51;;;;;;;18.67;3.88;;;;;;;3.37;89.41;99455.28;5094183;28;20063;-56
2021/12/08 07:31:19;;;;;;;18.98;5.28;;;;;;;3.35;89.17;99457.78;5093530;28;20088;-56
2021/12/08 07:33:45;;;;;;;16.88;4.20;;;;;;;3.35;89.05;99459.47;5093927;28;20424;-56
2021/12/08 07:36:15;;;;;;;21.20;5.40;;;;;;;3.32;89.36;99472.06;5093907;28;20055;-56
2021/12/08 07:38:41;;;;;;;13.95;4.82;;;;;;;3.32;89.27;99479.72;5093300;28;20024;-56
2021/12/08 07:41:33;;;;;;;15.20;3.70;;;;;;;3.33;89.23;99481.47;5093836;28;20020;-56
2021/12/08 07:44:02;;;;;;;20.25;4.97;;;;;;;3.26;89.50;99486.31;5093954;28;20020;-58
2021/12/08 07:46:34;;;;;;;15.43;3.50;;;;;;;3.25;89.66;99494.78;5092897;28;20056;-56
2021/12/08 07:49:05;;;;;;;16.15;3.80;;;;;;;3.26;89.83;99488.88;5094004;28;20050;-56
2021/12/08 07:51:35;;;;;;;15.45;4.03;;;;;;;3.26;89.80;99499.06;5093765;28;20037;-56
2021/12/08 07:54:03;;;;;;;22.33;4.13;;;;;;;3.27;89.71;99489.75;5092968;28;20028;-56
2021/12/08 07:56:29;;;;;;;13.18;3.75;;;;;;;3.28;89.91;99481.31;5093497;28;20078;-56
2021/12/08 07:58:59;;;;;;;15.32;3.95;;;;;;;3.29;89.71;99488.13;5092772;28;20020;-56
2021/12/08 08:01:32;;;;;;;14.40;3.47;;;;;;;3.32;89.58;99489.91;5093470;28;20356;-56
2021/12/08 08:03:58;;;;;;;19.30;4.35;;;;;;;3.34;89.53;99483.19;5093655;28;20020;-56
2021/12/08 08:06:31;;;;;;;13.93;3.25;;;;;;;3.37;88.99;99478.22;5092763;28;20168;-56
2021/12/08 08:08:56;;;;;;;16.15;3.17;;;;;;;3.41;88.42;99474.97;5093697;28;20110;-56
2021/12/08 08:11:29;;;;;;;15.32;3.22;;;;;;;3.40;88.71;99485.97;5093273;28;20467;-56
2021/12/08 08:13:55;;;;;;;24.52;4.38;;;;;;;3.43;88.46;99491.16;5092814;28;20043;-56
2021/12/08 08:16:26;;;;;;;15.93;3.38;;;;;;;3.44;88.37;99482.72;5093439;28;20024;-55
2021/12/08 08:19:01;;;;;;;13.13;2.83;;;;;;;3.47;88.14;99493.00;5093171;28;20035;-56
2021/12/08 08:21:30;;;;;;;14.30;3.42;;;;;;;3.48;87.99;99502.41;5092407;28;20028;-56
2021/12/08 08:23:58;;;;;;;13.98;3.45;;;;;;;3.51;87.44;99501.63;5093083;28;20069;-56
2021/12/08 08:26:24;;;;;;;12.98;2.92;;;;;;;3.50;88.10;99493.13;5092976;28;20068;-56
2021/12/08 08:28:52;;;;;;;14.65;3.05;;;;;;;3.51;87.08;99494.88;5092323;28;20024;-56
2021/12/08 08:31:32;;;;;;;21.33;4.15;;;;;;;3.56;87.15;99498.44;5093126;28;20037;-56
2021/12/08 08:33:58;;;;;;;22.52;3.95;;;;;;;3.56;86.80;99495.03;5093093;28;20024;-56
2021/12/08 08:36:29;;;;;;;17.60;4.05;;;;;;;3.57;86.65;99495.06;5091958;28;20040;-56
2021/12/08 08:39:00;;;;;;;19.95;3.65;;;;;;;3.60;86.05;99491.78;5092879;28;20459;-56
2021/12/08 08:41:35;;;;;;;15.55;3.22;;;;;;;3.68;84.96;99486.94;5092319;28;20020;-57
2021/12/08 08:44:08;;;;;;;12.85;3.65;;;;;;;3.70;85.56;99475.16;5093271;28;20089;-57
2021/12/08 08:46:38;;;;;;;23.63;4.05;;;;;;;3.71;85.42;99481.97;5092887;28;20025;-56
2021/12/08 08:49:08;;;;;;;17.90;3.92;;;;;;;3.76;84.50;99472.81;5092090;28;20115;-57
2021/12/08 08:51:59;;;;;;;20.90;3.65;;;;;;;3.78;85.49;99473.72;5092792;28;20107;-57
2021/12/08 08:54:32;;;;;;;12.68;3.50;;;;;;;3.76;84.92;99472.81;5092625;28;20115;-57
2021/12/08 08:57:02;;;;;;;12.65;3.60;;;;;;;3.74;85.13;99472.72;5092023;28;20020;-57
2021/12/08 08:59:38;;;;;;;15.95;3.78;;;;;;;3.75;84.36;99473.63;5092633;28;20149;-55
2021/12/08 09:02:08;;;;;;;14.18;3.47;;;;;;;3.77;84.26;99487.25;5092663;28;20517;-53
2021/12/08 09:04:38;;;;;;;14.27;3.55;;;;;;;3.77;84.18;99487.25;5092117;28;20031;-57
2021/12/08 09:07:11;;;;;;;12.40;3.20;;;;;;;3.77;84.36;99492.38;5092638;28;20475;-56
2021/12/08 09:09:40;;;;;;;12.30;3.30;;;;;;;3.79;84.54;99495.84;5091900;28;20025;-56
2021/12/08 09:12:10;;;;;;;15.45;3.33;;;;;;;3.82;84.49;99488.28;5092488;28;20027;-57
2021/12/08 09:14:47;;;;;;;14.38;3.20;;;;;;;3.85;84.43;99495.19;5092557;28;20032;-55
2021/12/08 09:17:15;;;;;;;10.93;3.25;;;;;;;3.87;84.45;99499.50;5092130;28;20070;-54
2021/12/08 09:19:45;;;;;;;11.20;2.95;;;;;;;3.91;83.64;99496.28;5092509;28;20034;-56
2021/12/08 09:22:25;;;;;;;11.00;3.33;;;;;;;3.92;83.67;99497.13;5092701;28;20020;-54
2021/12/08 09:24:59;;;;;;;14.23;3.35;;;;;;;3.90;84.19;99501.31;5091695;28;20032;-57
2021/12/08 09:27:35;;;;;;;12.40;3.20;;;;;;;3.93;83.72;99504.84;5092447;28;20035;-56
2021/12/08 09:30:13;;;;;;;16.30;3.30;;;;;;;3.97;83.82;99510.06;5092329;28;20028;-58
2021/12/08 09:32:47;;;;;;;13.88;3.00;;;;;;;3.97;83.49;99516.00;5091440;28;20147;-57
2021/12/08 09:35:23;;;;;;;14.38;3.20;;;;;;;4.00;83.66;99526.31;5092684;28;20127;-57
2021/12/08 09:37:57;;;;;;;12.68;3.53;;;;;;;4.10;83.13;99528.34;5091879;28;20051;-57
2021/12/08 09:40:25;;;;;;;12.65;3.20;;;;;;;4.22;82.71;99517.72;5092402;28;20502;-55
2021/12/08 09:42:55;;;;;;;10.55;3.00;;;;;;;4.38;82.55;99528.44;5092424;28;20036;-57
2021/12/08 09:45:34;;;;;;;11.55;3.70;;;;;;;4.50;81.77;99521.16;5091573;28;20024;-56
2021/12/08 09:48:05;;;;;;;9.50;3.13;;;;;;;4.58;81.37;99524.84;5092397;28;20024;-57
2021/12/08 09:50:31;;;;;;;14.65;2.97;;;;;;;4.66;81.54;99520.00;5092386;28;20020;-57
2021/12/08 09:52:56;;;;;;;18.58;3.45;;;;;;;4.75;80.83;99520.28;5091485;28;20016;-56
2021/12/08 09:55:22;;;;;;;12.20;3.30;;;;;;;4.93;80.72;99520.00;5092263;28;20039;-57
2021/12/08 09:57:48;;;;;;;10.70;3.13;;;;;;;5.06;79.85;99510.13;5091990;28;20024;-54
2021/12/08 10:00:22;;;;;;;13.73;3.30;;;;;;;5.20;79.11;99502.91;5091661;28;20087;-55
2021/12/08 10:02:48;;;;;;;17.85;3.30;;;;;;;5.30;77.91;99499.78;5092154;28;20020;-56
2021/12/08 10:05:16;;;;;;;12.20;3.20;;;;;;;5.37;77.84;99483.81;5095497;28;20020;-59
2021/12/08 10:07:43;;;;;;;14.30;3.10;;;;;;;5.54;76.61;99488.53;5094965;28;20054;-57
2021/12/08 10:10:11;;;;;;;15.23;2.77;;;;;;;5.54;75.62;99489.41;5095727;28;20024;-57
2021/12/08 10:12:37;;;;;;;9.80;2.83;;;;;;;5.60;76.05;99484.47;5094700;28;20111;-56
2021/12/08 10:15:06;;;;;;;18.83;2.95;;;;;;;5.66;75.56;99488.03;5095703;28;20062;-56
2021/12/08 10:17:31;;;;;;;13.85;2.90;;;;;;;5.67;75.39;99479.50;5095353;28;20051;-57
2021/12/08 10:20:19;;;;;;;12.95;3.00;;;;;;;5.77;77.02;99477.25;5094733;28;20476;-54
2021/12/08 10:22:46;;;;;;;;;;;;;;;5.94;77.97;99475.13;5095784;28;20106;-55
2021/12/08 10:25:22;;;;;;;11.73;2.70;;;;;;;5.92;75.47;99479.34;5095570;28;19923;-55
2021/12/08 10:28:10;;;;;;;8.18;2.70;;;;;;;5.96;75.46;99472.63;5094694;28;20032;-55
2021/12/08 10:30:46;;;;;;;10.95;2.70;;;;;;;5.92;74.80;99479.34;5095235;28;20391;-55
2021/12/08 10:33:56;;;;;;;10.63;2.60;;;;;;;6.04;75.88;99466.06;5095492;28;20379;-55
2021/12/08 10:36:54;;;;;;;9.93;2.40;;;;;;;6.03;74.57;99466.88;5095234;28;20055;-55
2021/12/08 10:39:30;;;;;;;9.23;2.45;;;;;;;6.14;74.83;99473.97;5092246;28;20043;-55
2021/12/08 10:42:14;;;;;;;10.20;2.63;;;;;;;6.30;75.71;99462.41;5094497;28;20024;-55
2021/12/08 10:47:39;;;;;;;10.07;2.67;;;;;;;6.40;72.41;99454.13;5094838;28;20410;-55
2021/12/08 10:55:53;;;;;;;13.65;3.15;;;;;;;6.55;73.08;99474.09;5094214;28;20090;-55
2021/12/08 10:58:24;;;;;;;11.75;2.70;;;;;;;6.60;71.72;99475.09;5094776;28;20024;-56
2021/12/08 11:00:52;;;;;;;10.75;2.60;;;;;;;6.50;72.36;99473.97;5094858;28;20114;-56
2021/12/08 11:03:18;;;;;;;8.48;2.78;;;;;;;6.51;71.31;99473.16;5093988;28;20497;-55
2021/12/08 11:05:57;;;;;;;9.38;2.47;;;;;;;6.56;72.17;99481.81;5094548;28;20036;-55
2021/12/08 11:08:33;;;;;;;9.82;2.50;;;;;;;6.69;71.80;99487.25;5094998;28;20506;-56
2021/12/08 11:11:06;;;;;;;9.25;2.63;;;;;;;6.83;71.04;99501.22;5094146;28;20539;-56
2021/12/08 11:13:44;;;;;;;14.90;2.90;;;;;;;7.13;71.41;99499.28;5094753;28;20137;-56
2021/12/08 11:16:17;;;;;;;10.65;2.75;;;;;;;7.10;69.91;99510.34;5093256;28;20078;-56
2021/12/08 11:18:51;;;;;;;10.25;2.45;;;;;;;6.95;70.57;99521.13;5094314;28;20032;-56
2021/12/08 11:21:30;;;;;;;12.70;3.10;;;;;;;6.85;71.27;99529.41;5094429;28;20020;-56
2021/12/08 11:23:58;;;;;;;9.93;2.78;;;;;;;6.64;71.69;99529.78;5093658;28;20054;-55
2021/12/08 11:26:31;;;;;;;13.10;2.90;;;;;;;6.53;72.86;99532.94;5094006;28;20044;-55
2021/12/08 11:28:58;;;;;;;10.93;2.90;;;;;;;6.43;73.10;99531.00;5094167;28;20095;-56
2021/12/08 11:31:27;;;;;;;11.52;2.80;;;;;;;6.39;72.93;99526.59;5093335;28;20043;-55
2021/12/08 11:34:04;;;;;;;12.52;2.88;;;;;;;6.42;73.11;99526.69;5094212;28;20062;-55
2021/12/08 11:36:33;;;;;;;8.68;2.60;;;;;;;6.42;71.48;99531.81;5093994;28;20077;-56
2021/12/08 11:39:05;;;;;;;8.68;3.17;;;;;;;6.35;73.34;99535.03;5093206;28;20552;-56
2021/12/08 11:41:37;;;;;;;8.75;2.35;;;;;;;6.30;72.97;99539.16;5094079;28;20031;-57
2021/12/08 11:44:14;;;;;;;8.23;2.88;;;;;;;6.23;73.31;99546.69;5093144;28;20028;-56
2021/12/08 11:46:43;;;;;;;14.70;3.13;;;;;;;6.16;73.36;99551.59;5093744;28;20476;-56
2021/12/08 11:49:10;;;;;;;10.98;3.05;;;;;;;6.10;73.74;99557.41;5093950;28;20032;-56
2021/12/08 11:51:44;;;;;;;7.95;2.70;;;;;;;6.05;74.46;99559.00;5092898;28;20027;-56
2021/12/08 11:54:26;;;;;;;10.43;3.10;;;;;;;6.01;74.89;99557.19;5093670;28;20542;-56
2021/12/08 11:56:52;;;;;;;13.73;3.05;;;;;;;5.86;73.68;99558.47;5093700;28;20031;-56
2021/12/08 11:59:19;;;;;;;11.32;3.22;;;;;;;5.82;74.72;99564.28;5093309;28;20035;-57
2021/12/08 12:01:46;;;;;;;11.98;3.05;;;;;;;5.80;74.01;99568.50;5093532;28;20067;-57
2021/12/08 12:04:11;;;;;;;8.30;2.85;;;;;;;5.80;74.17;99567.63;5093686;28;20103;-56
2021/12/08 12:06:37;;;;;;;8.15;2.80;;;;;;;5.74;74.27;99566.63;5092790;28;20520;-56
2021/12/08 12:09:06;;;;;;;10.43;3.25;;;;;;;5.69;73.89;99573.31;5093375;28;20024;-56
2021/12/08 12:11:33;;;;;;;9.32;3.33;;;;;;;5.66;75.24;99586.00;5093454;28;20039;-56
2021/12/08 12:14:00;;;;;;;11.43;3.25;;;;;;;5.65;75.19;99585.97;5092554;28;20372;-55
2021/12/08 12:16:26;;;;;;;8.75;3.15;;;;;;;5.64;74.98;99589.34;5093255;28;20028;-55
2021/12/08 12:18:56;;;;;;;13.23;3.63;;;;;;;5.70;75.49;99586.97;5093293;28;20444;-55
2021/12/08 12:21:28;;;;;;;11.90;3.25;;;;;;;5.91;75.08;99597.81;5092612;28;20024;-55
2021/12/08 12:24:05;;;;;;;11.93;2.95;;;;;;;5.96;75.29;99604.75;5093255;28;20020;-55
2021/12/08 12:26:53;;;;;;;11.95;3.10;;;;;;;5.95;75.24;99619.19;5091997;28;20051;-55